Main page
METAR-TAF:

METAR-TAF

Airports :

Harbin Taiping International Airport

Harbin, China

latitude: 45-45N, longitude: 126-46E, elevation: 143 m

Current weather observation

The report was made 28 minutes ago, at 05:00 UTC
Wind 12 kt from the South
Temperature -11°C
Humidity 56%
Pressure 1024 hPa
Visibility 10 km or more
no clouds below 1500 m and no cumulonimbus

METAR: ZYHB 060500Z 19006MPS CAVOK M11/M18 Q1024 NOSIG

Time: 13:28 (05:28 UTC)

Forecast

The report was made 10 hours and 18 minutes ago, at 19:10 UTC
Forecast valid from 06 at 00 UTC to 06 at 24 UTC
Wind 16 kt from the South/Southwest with gusts up to 25 kt
Visibility: 6000 m
Few clouds at a height of 3300 ft

TAF: ZYHB 051910Z 0600/0624 21008G13MPS 6000 FEW033 TXM11/06Z TNM23/00Z

Weather observations and forecasts of more than 4000 airports (METAR and TAF reports).

The available stations are represented by yellow and red dots on the map.

Hover mouse over dot to see the name of the station.

Then click to see weather observations and forecasts.

To change the map : click on the green buttons with a black cross to zoom in, on the green button with a dash to zoom out, or on the green arrows for adjacent maps.


METAR-TAF: